sensor_id;sensor_type;location;lat;lon;timestamp;temperature;humidity
8715;DHT22;4394;51.208;8.904;2023-07-24T00:00:46;19.10;99.90
8715;DHT22;4394;51.208;8.904;2023-07-24T00:03:34;19.10;99.90
8715;DHT22;4394;51.208;8.904;2023-07-24T00:06:24;19.10;99.90
8715;DHT22;4394;51.208;8.904;2023-07-24T00:09:12;19.10;99.90
8715;DHT22;4394;51.208;8.904;2023-07-24T00:12:00;19.10;99.90
8715;DHT22;4394;51.208;8.904;2023-07-24T00:14:48;19.10;99.90
8715;DHT22;4394;51.208;8.904;2023-07-24T00:17:36;18.90;99.90
8715;DHT22;4394;51.208;8.904;2023-07-24T00:20:24;19.10;99.90
8715;DHT22;4394;51.208;8.904;2023-07-24T00:23:14;19.00;99.90
8715;DHT22;4394;51.208;8.904;2023-07-24T00:26:02;19.00;99.90
8715;DHT22;4394;51.208;8.904;2023-07-24T00:28:50;19.00;99.90
8715;DHT22;4394;51.208;8.904;2023-07-24T00:31:38;19.00;99.90
8715;DHT22;4394;51.208;8.904;2023-07-24T00:34:26;18.90;99.90
8715;DHT22;4394;51.208;8.904;2023-07-24T00:37:15;19.00;99.90
8715;DHT22;4394;51.208;8.904;2023-07-24T00:40:06;19.00;99.90
8715;DHT22;4394;51.208;8.904;2023-07-24T00:42:54;18.90;99.90
8715;DHT22;4394;51.208;8.904;2023-07-24T00:45:42;18.90;99.90
8715;DHT22;4394;51.208;8.904;2023-07-24T00:48:31;18.90;99.90
8715;DHT22;4394;51.208;8.904;2023-07-24T00:51:19;18.90;99.90
8715;DHT22;4394;51.208;8.904;2023-07-24T00:54:08;18.90;99.90
8715;DHT22;4394;51.208;8.904;2023-07-24T00:56:57;18.80;99.90
8715;DHT22;4394;51.208;8.904;2023-07-24T00:59:46;18.90;99.90
8715;DHT22;4394;51.208;8.904;2023-07-24T01:02:34;18.80;99.90
8715;DHT22;4394;51.208;8.904;2023-07-24T01:05:24;18.80;99.90
8715;DHT22;4394;51.208;8.904;2023-07-24T01:08:13;18.80;99.90
8715;DHT22;4394;51.208;8.904;2023-07-24T01:11:06;18.80;99.90
8715;DHT22;4394;51.208;8.904;2023-07-24T01:14:04;18.80;99.90
8715;DHT22;4394;51.208;8.904;2023-07-24T01:16:58;18.90;99.90
8715;DHT22;4394;51.208;8.904;2023-07-24T01:19:50;18.70;99.90
8715;DHT22;4394;51.208;8.904;2023-07-24T01:22:48;18.70;99.90
8715;DHT22;4394;51.208;8.904;2023-07-24T01:26:01;18.70;99.90
8715;DHT22;4394;51.208;8.904;2023-07-24T01:28:50;18.70;99.90
8715;DHT22;4394;51.208;8.904;2023-07-24T01:31:38;18.70;99.90
8715;DHT22;4394;51.208;8.904;2023-07-24T01:34:26;18.70;99.90
8715;DHT22;4394;51.208;8.904;2023-07-24T01:37:15;18.70;99.90
8715;DHT22;4394;51.208;8.904;2023-07-24T01:40:05;18.70;99.90
8715;DHT22;4394;51.208;8.904;2023-07-24T01:42:55;18.70;99.90
8715;DHT22;4394;51.208;8.904;2023-07-24T01:45:46;18.70;99.90
8715;DHT22;4394;51.208;8.904;2023-07-24T01:48:34;18.90;99.90
8715;DHT22;4394;51.208;8.904;2023-07-24T01:51:22;18.80;99.90
8715;DHT22;4394;51.208;8.904;2023-07-24T01:54:10;18.70;99.90
8715;DHT22;4394;51.208;8.904;2023-07-24T01:56:58;18.70;99.90
8715;DHT22;4394;51.208;8.904;2023-07-24T01:59:48;18.60;99.90
8715;DHT22;4394;51.208;8.904;2023-07-24T02:02:36;18.60;99.90
8715;DHT22;4394;51.208;8.904;2023-07-24T02:05:25;18.60;99.90
8715;DHT22;4394;51.208;8.904;2023-07-24T02:08:13;18.60;99.90
8715;DHT22;4394;51.208;8.904;2023-07-24T02:11:01;18.50;99.90
8715;DHT22;4394;51.208;8.904;2023-07-24T02:13:49;18.50;99.90
8715;DHT22;4394;51.208;8.904;2023-07-24T02:16:39;18.50;99.90
8715;DHT22;4394;51.208;8.904;2023-07-24T02:19:27;18.50;99.90
8715;DHT22;4394;51.208;8.904;2023-07-24T02:22:15;18.50;99.90
8715;DHT22;4394;51.208;8.904;2023-07-24T02:25:04;18.50;99.90
8715;DHT22;4394;51.208;8.904;2023-07-24T02:27:52;18.50;99.90
8715;DHT22;4394;51.208;8.904;2023-07-24T02:30:40;18.40;99.90
8715;DHT22;4394;51.208;8.904;2023-07-24T02:33:29;18.40;99.90
8715;DHT22;4394;51.208;8.904;2023-07-24T02:36:17;18.40;99.90
8715;DHT22;4394;51.208;8.904;2023-07-24T02:39:05;18.40;99.90
8715;DHT22;4394;51.208;8.904;2023-07-24T02:41:53;18.40;99.90
8715;DHT22;4394;51.208;8.904;2023-07-24T02:44:41;18.30;99.90
8715;DHT22;4394;51.208;8.904;2023-07-24T02:47:29;18.40;99.90
8715;DHT22;4394;51.208;8.904;2023-07-24T02:50:19;18.30;99.90
8715;DHT22;4394;51.208;8.904;2023-07-24T02:53:07;18.30;99.90
8715;DHT22;4394;51.208;8.904;2023-07-24T02:55:55;18.30;99.90
8715;DHT22;4394;51.208;8.904;2023-07-24T02:58:43;18.30;99.90
8715;DHT22;4394;51.208;8.904;2023-07-24T03:01:31;18.30;99.90
8715;DHT22;4394;51.208;8.904;2023-07-24T03:04:19;18.20;99.90
8715;DHT22;4394;51.208;8.904;2023-07-24T03:07:09;18.20;99.90
8715;DHT22;4394;51.208;8.904;2023-07-24T03:09:57;18.20;99.90
8715;DHT22;4394;51.208;8.904;2023-07-24T03:12:45;18.20;99.90
8715;DHT22;4394;51.208;8.904;2023-07-24T03:15:33;18.20;99.90
8715;DHT22;4394;51.208;8.904;2023-07-24T03:18:21;18.30;99.90
8715;DHT22;4394;51.208;8.904;2023-07-24T03:21:10;18.10;99.90
8715;DHT22;4394;51.208;8.904;2023-07-24T03:23:59;18.10;99.90
8715;DHT22;4394;51.208;8.904;2023-07-24T03:26:47;18.00;99.90
8715;DHT22;4394;51.208;8.904;2023-07-24T03:29:35;18.00;99.90
8715;DHT22;4394;51.208;8.904;2023-07-24T03:32:24;18.00;99.90
8715;DHT22;4394;51.208;8.904;2023-07-24T03:35:12;18.00;99.90
8715;DHT22;4394;51.208;8.904;2023-07-24T03:38:00;18.10;99.90
8715;DHT22;4394;51.208;8.904;2023-07-24T03:40:49;18.10;99.90
8715;DHT22;4394;51.208;8.904;2023-07-24T03:43:37;18.10;99.90
8715;DHT22;4394;51.208;8.904;2023-07-24T03:46:26;18.10;99.90
8715;DHT22;4394;51.208;8.904;2023-07-24T03:49:14;18.10;99.90
8715;DHT22;4394;51.208;8.904;2023-07-24T03:52:03;18.10;99.90
8715;DHT22;4394;51.208;8.904;2023-07-24T03:54:51;18.10;99.90
8715;DHT22;4394;51.208;8.904;2023-07-24T03:57:40;18.10;99.90
8715;DHT22;4394;51.208;8.904;2023-07-24T04:00:28;18.10;99.90
8715;DHT22;4394;51.208;8.904;2023-07-24T04:03:16;18.10;99.90
8715;DHT22;4394;51.208;8.904;2023-07-24T04:06:05;18.10;99.90
8715;DHT22;4394;51.208;8.904;2023-07-24T04:08:53;18.10;99.90
8715;DHT22;4394;51.208;8.904;2023-07-24T04:11:41;18.10;99.90
8715;DHT22;4394;51.208;8.904;2023-07-24T04:14:31;18.10;99.90
8715;DHT22;4394;51.208;8.904;2023-07-24T04:17:19;18.10;99.90
8715;DHT22;4394;51.208;8.904;2023-07-24T04:20:08;18.10;99.90
8715;DHT22;4394;51.208;8.904;2023-07-24T04:22:56;18.00;99.90
8715;DHT22;4394;51.208;8.904;2023-07-24T04:25:44;18.10;99.90
8715;DHT22;4394;51.208;8.904;2023-07-24T04:28:32;18.10;99.90
8715;DHT22;4394;51.208;8.904;2023-07-24T04:31:21;18.20;99.90
8715;DHT22;4394;51.208;8.904;2023-07-24T04:34:09;18.10;99.90
8715;DHT22;4394;51.208;8.904;2023-07-24T04:36:58;18.10;99.90
8715;DHT22;4394;51.208;8.904;2023-07-24T04:39:46;18.10;99.90
8715;DHT22;4394;51.208;8.904;2023-07-24T04:42:34;18.10;99.90
8715;DHT22;4394;51.208;8.904;2023-07-24T04:45:22;18.10;99.90
8715;DHT22;4394;51.208;8.904;2023-07-24T04:48:11;18.10;99.90
8715;DHT22;4394;51.208;8.904;2023-07-24T04:50:59;18.10;99.90
8715;DHT22;4394;51.208;8.904;2023-07-24T04:53:47;18.10;99.90
8715;DHT22;4394;51.208;8.904;2023-07-24T04:56:35;18.20;99.90
8715;DHT22;4394;51.208;8.904;2023-07-24T04:59:23;18.20;99.90
8715;DHT22;4394;51.208;8.904;2023-07-24T05:02:11;18.20;99.90
8715;DHT22;4394;51.208;8.904;2023-07-24T05:05:01;18.20;99.90
8715;DHT22;4394;51.208;8.904;2023-07-24T05:07:49;18.20;99.90
8715;DHT22;4394;51.208;8.904;2023-07-24T05:10:37;18.20;99.90
8715;DHT22;4394;51.208;8.904;2023-07-24T05:13:26;18.20;99.90
8715;DHT22;4394;51.208;8.904;2023-07-24T05:16:14;18.20;99.90
8715;DHT22;4394;51.208;8.904;2023-07-24T05:19:02;18.20;99.90
8715;DHT22;4394;51.208;8.904;2023-07-24T05:21:51;18.30;99.90
8715;DHT22;4394;51.208;8.904;2023-07-24T05:24:39;18.20;99.90
8715;DHT22;4394;51.208;8.904;2023-07-24T05:27:28;18.30;99.90
8715;DHT22;4394;51.208;8.904;2023-07-24T05:30:16;18.30;99.90
8715;DHT22;4394;51.208;8.904;2023-07-24T05:33:04;18.70;99.90
8715;DHT22;4394;51.208;8.904;2023-07-24T05:35:57;18.60;99.90
8715;DHT22;4394;51.208;8.904;2023-07-24T05:38:47;18.50;99.90
8715;DHT22;4394;51.208;8.904;2023-07-24T05:41:35;18.50;99.90
8715;DHT22;4394;51.208;8.904;2023-07-24T05:44:26;18.80;99.90
8715;DHT22;4394;51.208;8.904;2023-07-24T05:47:14;18.70;99.90
8715;DHT22;4394;51.208;8.904;2023-07-24T05:50:03;18.70;99.90
8715;DHT22;4394;51.208;8.904;2023-07-24T05:52:51;18.70;99.90
8715;DHT22;4394;51.208;8.904;2023-07-24T05:55:41;18.70;99.90
8715;DHT22;4394;51.208;8.904;2023-07-24T05:58:29;18.70;99.90
8715;DHT22;4394;51.208;8.904;2023-07-24T06:01:17;18.70;99.90
8715;DHT22;4394;51.208;8.904;2023-07-24T06:04:05;18.70;99.90
8715;DHT22;4394;51.208;8.904;2023-07-24T06:06:54;18.80;99.90
8715;DHT22;4394;51.208;8.904;2023-07-24T06:09:42;18.80;99.90
8715;DHT22;4394;51.208;8.904;2023-07-24T06:12:31;18.90;99.90
8715;DHT22;4394;51.208;8.904;2023-07-24T06:15:19;18.90;99.90
8715;DHT22;4394;51.208;8.904;2023-07-24T06:18:07;19.00;99.90
8715;DHT22;4394;51.208;8.904;2023-07-24T06:20:55;19.10;99.90
8715;DHT22;4394;51.208;8.904;2023-07-24T06:23:44;19.00;99.90
8715;DHT22;4394;51.208;8.904;2023-07-24T06:26:32;19.00;99.90
8715;DHT22;4394;51.208;8.904;2023-07-24T06:29:21;19.10;99.90
8715;DHT22;4394;51.208;8.904;2023-07-24T06:32:10;19.20;99.90
8715;DHT22;4394;51.208;8.904;2023-07-24T06:34:58;19.20;99.90
8715;DHT22;4394;51.208;8.904;2023-07-24T06:37:46;19.20;99.90
8715;DHT22;4394;51.208;8.904;2023-07-24T06:40:34;19.30;99.90
8715;DHT22;4394;51.208;8.904;2023-07-24T06:43:22;19.60;99.90
8715;DHT22;4394;51.208;8.904;2023-07-24T06:46:12;19.50;99.90
8715;DHT22;4394;51.208;8.904;2023-07-24T06:49:00;19.50;99.90
8715;DHT22;4394;51.208;8.904;2023-07-24T06:51:48;19.60;99.90
8715;DHT22;4394;51.208;8.904;2023-07-24T06:54:36;19.60;99.90
8715;DHT22;4394;51.208;8.904;2023-07-24T06:57:24;19.60;99.90
8715;DHT22;4394;51.208;8.904;2023-07-24T07:00:13;19.60;99.90
8715;DHT22;4394;51.208;8.904;2023-07-24T07:03:03;19.70;99.90
8715;DHT22;4394;51.208;8.904;2023-07-24T07:05:51;19.80;99.90
8715;DHT22;4394;51.208;8.904;2023-07-24T07:08:39;19.80;99.90
8715;DHT22;4394;51.208;8.904;2023-07-24T07:11:27;19.80;99.90
8715;DHT22;4394;51.208;8.904;2023-07-24T07:14:15;19.90;99.90
8715;DHT22;4394;51.208;8.904;2023-07-24T07:17:03;19.90;99.90
8715;DHT22;4394;51.208;8.904;2023-07-24T07:19:53;20.00;99.90
8715;DHT22;4394;51.208;8.904;2023-07-24T07:22:44;20.00;99.90
8715;DHT22;4394;51.208;8.904;2023-07-24T07:25:32;20.10;99.90
8715;DHT22;4394;51.208;8.904;2023-07-24T07:28:20;20.20;99.90
8715;DHT22;4394;51.208;8.904;2023-07-24T07:31:08;20.30;99.90
8715;DHT22;4394;51.208;8.904;2023-07-24T07:33:56;20.40;99.90
8715;DHT22;4394;51.208;8.904;2023-07-24T07:36:45;20.40;99.90
8715;DHT22;4394;51.208;8.904;2023-07-24T07:39:33;20.40;99.90
8715;DHT22;4394;51.208;8.904;2023-07-24T07:42:21;20.60;99.90
8715;DHT22;4394;51.208;8.904;2023-07-24T07:45:10;20.50;99.90
8715;DHT22;4394;51.208;8.904;2023-07-24T07:47:58;20.50;99.90
8715;DHT22;4394;51.208;8.904;2023-07-24T07:50:50;20.60;99.90
8715;DHT22;4394;51.208;8.904;2023-07-24T07:53:39;20.60;99.90
8715;DHT22;4394;51.208;8.904;2023-07-24T07:56:28;20.70;99.90
8715;DHT22;4394;51.208;8.904;2023-07-24T07:59:16;20.80;99.90
8715;DHT22;4394;51.208;8.904;2023-07-24T08:02:05;21.00;99.90
8715;DHT22;4394;51.208;8.904;2023-07-24T08:04:53;21.10;99.90
8715;DHT22;4394;51.208;8.904;2023-07-24T08:07:41;21.20;99.90
8715;DHT22;4394;51.208;8.904;2023-07-24T08:10:30;21.30;99.90
8715;DHT22;4394;51.208;8.904;2023-07-24T08:13:18;21.40;99.90
8715;DHT22;4394;51.208;8.904;2023-07-24T08:16:12;21.40;99.90
8715;DHT22;4394;51.208;8.904;2023-07-24T08:19:05;21.60;99.90
8715;DHT22;4394;51.208;8.904;2023-07-24T08:21:53;21.60;99.90
8715;DHT22;4394;51.208;8.904;2023-07-24T08:24:41;21.50;99.90
8715;DHT22;4394;51.208;8.904;2023-07-24T08:27:31;21.40;99.90
8715;DHT22;4394;51.208;8.904;2023-07-24T08:30:31;21.40;99.90
8715;DHT22;4394;51.208;8.904;2023-07-24T08:33:19;21.30;99.90
8715;DHT22;4394;51.208;8.904;2023-07-24T08:36:09;21.30;99.90
8715;DHT22;4394;51.208;8.904;2023-07-24T08:38:58;21.70;99.90
8715;DHT22;4394;51.208;8.904;2023-07-24T08:41:46;21.70;99.90
8715;DHT22;4394;51.208;8.904;2023-07-24T08:44:36;21.60;99.90
8715;DHT22;4394;51.208;8.904;2023-07-24T08:47:24;21.80;99.90
8715;DHT22;4394;51.208;8.904;2023-07-24T08:50:13;21.70;99.90
8715;DHT22;4394;51.208;8.904;2023-07-24T08:53:02;21.70;99.90
8715;DHT22;4394;51.208;8.904;2023-07-24T08:55:51;21.70;99.90
8715;DHT22;4394;51.208;8.904;2023-07-24T08:58:41;21.70;99.90
8715;DHT22;4394;51.208;8.904;2023-07-24T09:01:31;21.60;99.90
8715;DHT22;4394;51.208;8.904;2023-07-24T09:04:20;21.60;99.90
8715;DHT22;4394;51.208;8.904;2023-07-24T09:07:08;21.70;99.90
8715;DHT22;4394;51.208;8.904;2023-07-24T09:09:56;21.80;99.90
8715;DHT22;4394;51.208;8.904;2023-07-24T09:12:44;22.00;99.90
8715;DHT22;4394;51.208;8.904;2023-07-24T09:15:40;22.10;99.90
8715;DHT22;4394;51.208;8.904;2023-07-24T09:18:38;22.40;99.90
8715;DHT22;4394;51.208;8.904;2023-07-24T09:21:27;22.30;99.90
8715;DHT22;4394;51.208;8.904;2023-07-24T09:24:16;22.30;99.90
8715;DHT22;4394;51.208;8.904;2023-07-24T09:27:05;22.40;99.90
8715;DHT22;4394;51.208;8.904;2023-07-24T09:29:55;22.40;99.90
8715;DHT22;4394;51.208;8.904;2023-07-24T09:32:51;22.30;99.90
8715;DHT22;4394;51.208;8.904;2023-07-24T09:35:40;22.30;99.90
8715;DHT22;4394;51.208;8.904;2023-07-24T09:38:28;22.30;99.90
8715;DHT22;4394;51.208;8.904;2023-07-24T09:41:27;22.30;99.90
8715;DHT22;4394;51.208;8.904;2023-07-24T09:44:18;22.30;99.90
8715;DHT22;4394;51.208;8.904;2023-07-24T09:47:06;22.40;99.90
8715;DHT22;4394;51.208;8.904;2023-07-24T09:50:14;22.60;99.90
8715;DHT22;4394;51.208;8.904;2023-07-24T09:53:05;22.50;99.90
8715;DHT22;4394;51.208;8.904;2023-07-24T09:55:57;22.60;99.90
8715;DHT22;4394;51.208;8.904;2023-07-24T09:58:45;22.60;99.90
8715;DHT22;4394;51.208;8.904;2023-07-24T10:01:37;22.70;99.90
8715;DHT22;4394;51.208;8.904;2023-07-24T10:04:25;22.80;99.90
8715;DHT22;4394;51.208;8.904;2023-07-24T10:07:14;22.90;99.90
8715;DHT22;4394;51.208;8.904;2023-07-24T10:10:04;22.90;99.90
8715;DHT22;4394;51.208;8.904;2023-07-24T10:12:53;22.90;99.90
8715;DHT22;4394;51.208;8.904;2023-07-24T10:15:41;22.90;99.90
8715;DHT22;4394;51.208;8.904;2023-07-24T10:18:30;23.00;99.90
8715;DHT22;4394;51.208;8.904;2023-07-24T10:21:26;23.00;99.90
8715;DHT22;4394;51.208;8.904;2023-07-24T10:24:15;23.30;99.90
8715;DHT22;4394;51.208;8.904;2023-07-24T10:27:24;23.30;99.90
8715;DHT22;4394;51.208;8.904;2023-07-24T10:30:15;23.10;99.90
8715;DHT22;4394;51.208;8.904;2023-07-24T10:33:20;23.20;99.90
8715;DHT22;4394;51.208;8.904;2023-07-24T10:36:09;23.20;99.90
8715;DHT22;4394;51.208;8.904;2023-07-24T10:39:00;23.20;99.90
8715;DHT22;4394;51.208;8.904;2023-07-24T10:41:49;23.20;99.90
8715;DHT22;4394;51.208;8.904;2023-07-24T10:44:39;23.30;99.90
8715;DHT22;4394;51.208;8.904;2023-07-24T10:47:27;23.50;99.90
8715;DHT22;4394;51.208;8.904;2023-07-24T10:50:15;23.60;99.90
8715;DHT22;4394;51.208;8.904;2023-07-24T10:53:03;23.70;99.90
8715;DHT22;4394;51.208;8.904;2023-07-24T10:55:51;23.80;99.90
8715;DHT22;4394;51.208;8.904;2023-07-24T10:58:40;23.80;99.90
8715;DHT22;4394;51.208;8.904;2023-07-24T11:01:30;23.70;99.90
8715;DHT22;4394;51.208;8.904;2023-07-24T11:04:20;23.60;99.90
8715;DHT22;4394;51.208;8.904;2023-07-24T11:07:08;23.50;99.90
8715;DHT22;4394;51.208;8.904;2023-07-24T11:09:56;23.60;99.90
8715;DHT22;4394;51.208;8.904;2023-07-24T11:12:44;23.70;99.90
8715;DHT22;4394;51.208;8.904;2023-07-24T11:15:32;23.60;99.90
8715;DHT22;4394;51.208;8.904;2023-07-24T11:18:22;23.70;99.90
8715;DHT22;4394;51.208;8.904;2023-07-24T11:21:29;23.90;99.90
8715;DHT22;4394;51.208;8.904;2023-07-24T11:24:18;24.10;99.90
8715;DHT22;4394;51.208;8.904;2023-07-24T11:27:10;24.20;99.90
8715;DHT22;4394;51.208;8.904;2023-07-24T11:29:58;24.20;99.90
8715;DHT22;4394;51.208;8.904;2023-07-24T11:32:47;24.20;99.90
8715;DHT22;4394;51.208;8.904;2023-07-24T11:35:37;24.10;99.90
8715;DHT22;4394;51.208;8.904;2023-07-24T11:38:26;24.10;99.90
8715;DHT22;4394;51.208;8.904;2023-07-24T11:41:16;23.90;99.90
8715;DHT22;4394;51.208;8.904;2023-07-24T11:44:06;23.90;99.90
8715;DHT22;4394;51.208;8.904;2023-07-24T11:47:01;23.90;99.90
8715;DHT22;4394;51.208;8.904;2023-07-24T11:49:57;23.90;99.90
8715;DHT22;4394;51.208;8.904;2023-07-24T11:52:48;24.10;99.90
8715;DHT22;4394;51.208;8.904;2023-07-24T11:55:36;24.20;99.90
8715;DHT22;4394;51.208;8.904;2023-07-24T11:58:25;24.30;99.90
8715;DHT22;4394;51.208;8.904;2023-07-24T12:01:14;24.70;99.90
8715;DHT22;4394;51.208;8.904;2023-07-24T12:04:03;24.50;99.90
8715;DHT22;4394;51.208;8.904;2023-07-24T12:06:51;24.40;99.90
8715;DHT22;4394;51.208;8.904;2023-07-24T12:09:41;24.30;99.90
8715;DHT22;4394;51.208;8.904;2023-07-24T12:12:39;24.40;99.90
8715;DHT22;4394;51.208;8.904;2023-07-24T12:15:27;24.30;99.90
8715;DHT22;4394;51.208;8.904;2023-07-24T12:18:16;24.30;99.90
8715;DHT22;4394;51.208;8.904;2023-07-24T12:21:04;24.40;99.90
8715;DHT22;4394;51.208;8.904;2023-07-24T12:23:52;24.50;99.90
8715;DHT22;4394;51.208;8.904;2023-07-24T12:26:41;24.60;99.90
8715;DHT22;4394;51.208;8.904;2023-07-24T12:29:30;24.70;99.90
8715;DHT22;4394;51.208;8.904;2023-07-24T12:32:18;24.80;99.90
8715;DHT22;4394;51.208;8.904;2023-07-24T12:35:08;24.80;99.90
8715;DHT22;4394;51.208;8.904;2023-07-24T12:37:56;24.70;99.90
8715;DHT22;4394;51.208;8.904;2023-07-24T12:40:45;24.70;99.90
8715;DHT22;4394;51.208;8.904;2023-07-24T12:43:35;24.70;99.90
8715;DHT22;4394;51.208;8.904;2023-07-24T12:46:23;24.80;99.90
8715;DHT22;4394;51.208;8.904;2023-07-24T12:49:11;25.10;99.90
8715;DHT22;4394;51.208;8.904;2023-07-24T12:51:59;24.90;99.90
8715;DHT22;4394;51.208;8.904;2023-07-24T12:54:47;24.80;99.90
8715;DHT22;4394;51.208;8.904;2023-07-24T12:57:47;24.70;99.90
8715;DHT22;4394;51.208;8.904;2023-07-24T13:00:37;24.80;99.90
8715;DHT22;4394;51.208;8.904;2023-07-24T13:03:25;24.80;99.90
8715;DHT22;4394;51.208;8.904;2023-07-24T13:06:13;24.90;99.90
8715;DHT22;4394;51.208;8.904;2023-07-24T13:09:01;25.10;99.90
8715;DHT22;4394;51.208;8.904;2023-07-24T13:11:49;25.20;99.90
8715;DHT22;4394;51.208;8.904;2023-07-24T13:14:38;25.30;99.90
8715;DHT22;4394;51.208;8.904;2023-07-24T13:17:29;25.50;99.90
8715;DHT22;4394;51.208;8.904;2023-07-24T13:20:18;25.50;99.90
8715;DHT22;4394;51.208;8.904;2023-07-24T13:23:06;25.90;99.90
8715;DHT22;4394;51.208;8.904;2023-07-24T13:25:54;25.80;99.90
8715;DHT22;4394;51.208;8.904;2023-07-24T13:28:42;25.60;99.90
8715;DHT22;4394;51.208;8.904;2023-07-24T13:31:31;25.50;99.90
8715;DHT22;4394;51.208;8.904;2023-07-24T13:34:23;25.70;99.90
8715;DHT22;4394;51.208;8.904;2023-07-24T13:37:11;25.60;99.90
8715;DHT22;4394;51.208;8.904;2023-07-24T13:39:59;25.40;99.90
8715;DHT22;4394;51.208;8.904;2023-07-24T13:42:47;25.30;99.90
8715;DHT22;4394;51.208;8.904;2023-07-24T13:45:35;25.40;99.90
8715;DHT22;4394;51.208;8.904;2023-07-24T13:48:24;25.40;99.90
8715;DHT22;4394;51.208;8.904;2023-07-24T13:51:13;25.20;99.90
8715;DHT22;4394;51.208;8.904;2023-07-24T13:54:01;25.10;99.90
8715;DHT22;4394;51.208;8.904;2023-07-24T13:56:49;25.00;99.90
8715;DHT22;4394;51.208;8.904;2023-07-24T13:59:37;24.90;99.90
8715;DHT22;4394;51.208;8.904;2023-07-24T14:02:26;24.70;99.90
8715;DHT22;4394;51.208;8.904;2023-07-24T14:05:16;24.30;99.90
8715;DHT22;4394;51.208;8.904;2023-07-24T14:08:07;23.40;99.90
8715;DHT22;4394;51.208;8.904;2023-07-24T14:10:55;22.60;99.90
8715;DHT22;4394;51.208;8.904;2023-07-24T14:13:43;21.90;99.90
8715;DHT22;4394;51.208;8.904;2023-07-24T14:16:31;21.40;99.90
8715;DHT22;4394;51.208;8.904;2023-07-24T14:19:20;20.90;99.90
8715;DHT22;4394;51.208;8.904;2023-07-24T14:22:10;20.50;99.90
8715;DHT22;4394;51.208;8.904;2023-07-24T14:24:59;20.30;99.90
8715;DHT22;4394;51.208;8.904;2023-07-24T14:27:47;20.20;99.90
8715;DHT22;4394;51.208;8.904;2023-07-24T14:30:35;20.30;99.90
8715;DHT22;4394;51.208;8.904;2023-07-24T14:33:23;20.40;99.90
8715;DHT22;4394;51.208;8.904;2023-07-24T14:36:11;20.60;99.90
8715;DHT22;4394;51.208;8.904;2023-07-24T14:38:59;20.80;99.90
8715;DHT22;4394;51.208;8.904;2023-07-24T14:41:49;21.20;99.90
8715;DHT22;4394;51.208;8.904;2023-07-24T14:44:37;21.40;99.90
8715;DHT22;4394;51.208;8.904;2023-07-24T14:47:26;21.50;99.90
8715;DHT22;4394;51.208;8.904;2023-07-24T14:50:14;21.70;99.90
8715;DHT22;4394;51.208;8.904;2023-07-24T14:53:02;21.80;99.90
8715;DHT22;4394;51.208;8.904;2023-07-24T14:55:50;22.30;99.90
8715;DHT22;4394;51.208;8.904;2023-07-24T14:58:39;22.20;99.90
8715;DHT22;4394;51.208;8.904;2023-07-24T15:01:29;22.00;99.90
8715;DHT22;4394;51.208;8.904;2023-07-24T15:04:17;21.80;99.90
8715;DHT22;4394;51.208;8.904;2023-07-24T15:07:05;21.50;99.90
8715;DHT22;4394;51.208;8.904;2023-07-24T15:09:53;21.30;99.90
8715;DHT22;4394;51.208;8.904;2023-07-24T15:12:42;21.10;99.90
8715;DHT22;4394;51.208;8.904;2023-07-24T15:15:31;21.10;99.90
8715;DHT22;4394;51.208;8.904;2023-07-24T15:18:19;21.00;99.90
8715;DHT22;4394;51.208;8.904;2023-07-24T15:21:08;20.80;99.90
8715;DHT22;4394;51.208;8.904;2023-07-24T15:23:56;20.80;99.90
8715;DHT22;4394;51.208;8.904;2023-07-24T15:26:44;20.80;99.90
8715;DHT22;4394;51.208;8.904;2023-07-24T15:29:33;21.10;99.90
8715;DHT22;4394;51.208;8.904;2023-07-24T15:32:22;21.10;99.90
8715;DHT22;4394;51.208;8.904;2023-07-24T15:35:10;21.30;99.90
8715;DHT22;4394;51.208;8.904;2023-07-24T15:37:58;21.40;99.90
8715;DHT22;4394;51.208;8.904;2023-07-24T15:40:48;21.50;99.90
8715;DHT22;4394;51.208;8.904;2023-07-24T15:43:36;22.00;99.90
8715;DHT22;4394;51.208;8.904;2023-07-24T15:46:24;22.10;99.90
8715;DHT22;4394;51.208;8.904;2023-07-24T15:49:15;22.00;99.90
8715;DHT22;4394;51.208;8.904;2023-07-24T15:52:04;21.80;99.90
8715;DHT22;4394;51.208;8.904;2023-07-24T15:54:52;22.40;99.90
8715;DHT22;4394;51.208;8.904;2023-07-24T15:57:41;22.40;99.90
8715;DHT22;4394;51.208;8.904;2023-07-24T16:00:29;22.40;99.90
8715;DHT22;4394;51.208;8.904;2023-07-24T16:03:18;22.40;99.90
8715;DHT22;4394;51.208;8.904;2023-07-24T16:06:07;22.60;99.90
8715;DHT22;4394;51.208;8.904;2023-07-24T16:08:56;22.60;99.90
8715;DHT22;4394;51.208;8.904;2023-07-24T16:11:44;22.60;99.90
8715;DHT22;4394;51.208;8.904;2023-07-24T16:14:34;22.60;99.90
8715;DHT22;4394;51.208;8.904;2023-07-24T16:17:22;22.70;99.90
8715;DHT22;4394;51.208;8.904;2023-07-24T16:20:11;22.70;99.90
8715;DHT22;4394;51.208;8.904;2023-07-24T16:23:01;22.80;99.90
8715;DHT22;4394;51.208;8.904;2023-07-24T16:25:49;22.90;99.90
8715;DHT22;4394;51.208;8.904;2023-07-24T16:28:37;23.10;99.90
8715;DHT22;4394;51.208;8.904;2023-07-24T16:31:25;23.10;99.90
8715;DHT22;4394;51.208;8.904;2023-07-24T16:34:21;22.70;99.90
8715;DHT22;4394;51.208;8.904;2023-07-24T16:37:09;22.50;99.90
8715;DHT22;4394;51.208;8.904;2023-07-24T16:39:59;22.60;99.90
8715;DHT22;4394;51.208;8.904;2023-07-24T16:42:47;22.70;99.90
8715;DHT22;4394;51.208;8.904;2023-07-24T16:45:42;22.80;99.90
8715;DHT22;4394;51.208;8.904;2023-07-24T16:48:50;22.90;99.90
8715;DHT22;4394;51.208;8.904;2023-07-24T16:51:39;22.90;99.90
8715;DHT22;4394;51.208;8.904;2023-07-24T16:54:27;22.90;99.90
8715;DHT22;4394;51.208;8.904;2023-07-24T16:57:16;22.80;99.90
8715;DHT22;4394;51.208;8.904;2023-07-24T17:00:05;22.50;99.90
8715;DHT22;4394;51.208;8.904;2023-07-24T17:02:54;22.40;99.90
8715;DHT22;4394;51.208;8.904;2023-07-24T17:05:42;22.20;99.90
8715;DHT22;4394;51.208;8.904;2023-07-24T17:08:30;22.10;99.90
8715;DHT22;4394;51.208;8.904;2023-07-24T17:11:18;22.00;99.90
8715;DHT22;4394;51.208;8.904;2023-07-24T17:14:08;21.90;99.90
8715;DHT22;4394;51.208;8.904;2023-07-24T17:16:56;22.10;99.90
8715;DHT22;4394;51.208;8.904;2023-07-24T17:19:46;22.20;99.90
8715;DHT22;4394;51.208;8.904;2023-07-24T17:22:34;22.20;99.90
8715;DHT22;4394;51.208;8.904;2023-07-24T17:25:23;22.20;99.90
8715;DHT22;4394;51.208;8.904;2023-07-24T17:28:11;22.30;99.90
8715;DHT22;4394;51.208;8.904;2023-07-24T17:31:01;22.40;99.90
8715;DHT22;4394;51.208;8.904;2023-07-24T17:33:49;22.20;99.90
8715;DHT22;4394;51.208;8.904;2023-07-24T17:36:37;22.10;99.90
8715;DHT22;4394;51.208;8.904;2023-07-24T17:39:25;21.90;99.90
8715;DHT22;4394;51.208;8.904;2023-07-24T17:42:13;21.90;99.90
8715;DHT22;4394;51.208;8.904;2023-07-24T17:45:01;22.00;99.90
8715;DHT22;4394;51.208;8.904;2023-07-24T17:47:51;22.10;99.90
8715;DHT22;4394;51.208;8.904;2023-07-24T17:50:39;22.10;99.90
8715;DHT22;4394;51.208;8.904;2023-07-24T17:53:27;22.00;99.90
8715;DHT22;4394;51.208;8.904;2023-07-24T17:56:15;22.00;99.90
8715;DHT22;4394;51.208;8.904;2023-07-24T17:59:03;22.10;99.90
8715;DHT22;4394;51.208;8.904;2023-07-24T18:01:51;22.50;99.90
8715;DHT22;4394;51.208;8.904;2023-07-24T18:04:40;22.60;99.90
8715;DHT22;4394;51.208;8.904;2023-07-24T18:07:29;22.70;99.90
8715;DHT22;4394;51.208;8.904;2023-07-24T18:10:17;22.60;99.90
8715;DHT22;4394;51.208;8.904;2023-07-24T18:13:07;22.80;99.90
8715;DHT22;4394;51.208;8.904;2023-07-24T18:15:55;22.40;99.90
8715;DHT22;4394;51.208;8.904;2023-07-24T18:18:43;22.50;99.90
8715;DHT22;4394;51.208;8.904;2023-07-24T18:21:32;22.70;99.90
8715;DHT22;4394;51.208;8.904;2023-07-24T18:24:20;22.70;99.90